• Join FlightAware (Why Join?)
  • Login
  • US Flag 
09:38PM EDT


 

Airport Tracker/Info


-or-


 

Live Flight TrackerFlight Track Log ✈ FDX1405 ✈ 18-Sep-2013 ✈ KMEM - KORD

Flight Track Log - Related Links

Times and Time Zones

All times are in EDT time to prevent confusion due to time zone crossing. See the FDX1405 flight status page for this flight to view local times or setup timezone preferences in your user account.

Time Position Orientation Groundspeed Altitude Reporting Facility
EDT Latitude Longitude Course Direction KTS MPH feet Rate Location/Type
05:01AM 35.1460 -90.1000 10° North 276 318 5,600  Level FlightAware
05:01AM 35.1710 -90.0950 North 273 314 6,700 3,060 Climbing FlightAware
05:01AM 35.1910 -90.0920 North 275 316 7,500 2,640 Climbing FlightAware
05:02AM 35.2340 -90.0880 North 286 329 8,900 2,640 Climbing FlightAware
05:02AM 35.2620 -90.0860 North 293 337 9,800 1,500 Climbing FlightAware
05:03AM 35.3140 -90.0820 North 340 391 10,300 720 Climbing FlightAware
05:04AM 35.3770 -90.0770 North 384 442 10,700 540 Climbing FlightAware
05:04AM 35.4450 -90.0720 North 392 451 11,100 2,160 Climbing FlightAware
05:05AM 35.5110 -90.0660 North 401 461 13,400 3,180 Climbing FlightAware
05:05AM 35.5760 -90.0600 North 408 470 14,600 1,980 Climbing FlightAware
05:06AM 35.6500 -90.0540 North 418 481 15,800 1,800 Climbing FlightAware
05:07AM 35.7190 -90.0480 North 427 491 16,800 1,620 Climbing FlightAware
05:07AM 35.7650 -90.0470 North 431 496 17,400 1,680 Climbing FlightAware
05:08AM 35.8400 -90.0550 355° North 438 504 18,500 1,740 Climbing FlightAware
05:08AM 35.8990 -90.0610 355° North 440 506 19,400 1,800 Climbing FlightAware
05:09AM 35.9900 -90.0700 355° North 444 511 20,700 1,560 Climbing FlightAware
05:09AM 36.0490 -90.0770 355° North 452 520 21,300 1,440 Climbing FlightAware
05:10AM 36.1260 -90.0840 356° North 457 526 22,300 660 Climbing FlightAware
05:11AM 36.2360 -90.0900 357° North 459 528 22,400 60 Climbing FlightAware
05:12AM 36.3000 -90.0950 356° North 459 528 22,400 2,460 Level FlightAware
05:12AM 36.3980 -90.0300 28° Northeast 479 551 25,200 3,180 Climbing FlightAware
05:13AM 36.4720 -90.0050 15° North 482 555 25,900 1,020 Climbing FlightAware
05:13AM 36.5480 -89.9780 16° North 491 565 26,400 960 Climbing FlightAware
05:14AM 36.6150 -89.9550 15° North 494 568 27,000 1,020 Climbing FlightAware
05:14AM 36.6990 -89.9250 16° North 499 574 27,600 1,140 Climbing FlightAware
05:15AM 36.7980 -89.8900 16° North 497 572 28,600 1,440 Climbing FlightAware
05:16AM 36.8700 -89.8640 16° North 494 568 29,500 1,320 Climbing FlightAware
05:16AM 36.9620 -89.8310 16° North 494 568 30,300 1,320 Climbing FlightAware
05:17AM 37.0420 -89.8030 16° North 485 558 31,300 1,380 Climbing FlightAware
05:18AM 37.1220 -89.7750 16° North 483 556 32,000 1,140 Climbing FlightAware
05:18AM 37.2090 -89.7430 16° North 480 552 32,800 1,080 Climbing FlightAware
05:19AM 37.2780 -89.7190 15° North 481 554 33,300 900 Climbing FlightAware
05:19AM 37.3550 -89.6910 16° North 479 551 33,900 900 Climbing FlightAware
05:20AM 37.4460 -89.6590 16° North 478 550 34,500 780 Climbing FlightAware
05:21AM 37.5260 -89.6300 16° North 478 550 35,000 420 Climbing FlightAware
05:21AM 37.5930 -89.6050 16° North 477 549 35,000  Level FlightAware
05:22AM 37.6700 -89.5770 16° North 479 551 35,000  Level FlightAware
05:22AM 37.7470 -89.5490 16° North 477 549 35,000  Level FlightAware
05:23AM 37.8190 -89.5220 17° North 474 545 35,000  Level FlightAware
05:24AM 37.8970 -89.4940 16° North 473 544 35,000  Level FlightAware
05:24AM 37.9660 -89.4680 17° North 473 544 35,000  Level FlightAware
05:25AM 38.0410 -89.4410 16° North 475 547 35,000  Level FlightAware
05:25AM 38.1080 -89.4160 16° North 475 547 35,000  Level FlightAware
05:26AM 38.1840 -89.3880 16° North 476 548 35,000  Level FlightAware
05:26AM 38.2640 -89.3600 15° North 476 548 35,000  Level FlightAware
05:27AM 38.3400 -89.3310 17° North 478 550 35,000  Level FlightAware
05:28AM 38.4180 -89.3020 16° North 478 550 35,000  Level FlightAware
05:28AM 38.4860 -89.2770 16° North 478 550 35,000  Level FlightAware
05:29AM 38.5590 -89.2500 16° North 480 552 35,000  Level FlightAware
05:29AM 38.6380 -89.2200 17° North 481 554 35,000  Level FlightAware
05:30AM 38.7120 -89.1920 16° North 482 555 35,000 60 Level FlightAware
05:31AM 38.7850 -89.1650 16° North 482 555 35,100 60 Climbing FlightAware
05:31AM 38.8570 -89.1380 16° North 482 555 35,100  Level FlightAware
05:32AM 38.9400 -89.1070 16° North 479 551 35,100 -120 Level FlightAware
05:32AM 39.0040 -89.0830 16° North 472 543 35,000 -120 Descending FlightAware
05:33AM 39.0740 -89.0560 17° North 470 541 35,000  Level FlightAware
05:33AM 39.1550 -89.0260 16° North 472 543 35,000  Level FlightAware
05:34AM 39.2270 -88.9980 17° North 476 548 35,000  Level FlightAware
05:35AM 39.3110 -88.9670 16° North 478 550 35,000 60 Level FlightAware
05:35AM 39.3780 -88.9410 17° North 479 551 35,100  Climbing FlightAware
05:36AM 39.4540 -88.9120 16° North 482 555 35,000 -120 Descending FlightAware
05:36AM 39.5330 -88.8820 16° North 484 557 35,000 60 Level FlightAware
05:37AM 39.6020 -88.8550 17° North 485 558 35,100  Climbing FlightAware
05:38AM 39.6780 -88.8260 16° North 485 558 35,000  Descending FlightAware
05:38AM 39.7560 -88.7960 16° North 483 556 35,100  Climbing FlightAware
05:39AM 39.8330 -88.7660 17° North 481 554 35,000 -120 Descending FlightAware
05:39AM 39.9030 -88.7380 17° North 479 551 35,000  Level FlightAware
05:40AM 39.9790 -88.7090 16° North 477 549 35,000  Level FlightAware
05:40AM 40.0550 -88.6800 16° North 475 547 35,000  Level FlightAware
05:41AM 40.1320 -88.6500 17° North 475 547 35,000  Level FlightAware
05:42AM 40.2000 -88.6240 16° North 475 547 35,000  Level FlightAware
05:42AM 40.2760 -88.5930 17° North 474 545 35,000 -600 Level FlightAware
05:43AM 40.3510 -88.5640 16° North 470 541 34,300 -1,860 Descending FlightAware
05:43AM 40.4180 -88.5380 16° North 468 539 32,900 -3,060 Descending FlightAware
05:44AM 40.4920 -88.5080 17° North 477 549 30,900 -3,660 Descending FlightAware
05:45AM 40.5700 -88.4780 16° North 486 559 28,600 -3,540 Descending FlightAware
05:45AM 40.6490 -88.4460 17° North 495 570 26,600 -3,060 Descending FlightAware
05:46AM 40.7180 -88.4190 17° North 489 563 25,100 -2,880 Descending FlightAware
05:46AM 40.7950 -88.3880 17° North 478 550 23,400 -2,880 Descending FlightAware
05:47AM 40.8730 -88.3570 17° North 468 539 21,700 -2,760 Descending FlightAware
05:47AM 40.9380 -88.3310 17° North 459 528 20,200 -2,940 Descending FlightAware
05:48AM 41.0110 -88.3020 17° North 449 517 18,400 -2,880 Descending FlightAware
05:49AM 41.0810 -88.2730 17° North 437 503 16,800 -2,640 Descending FlightAware
05:49AM 41.1500 -88.2460 16° North 425 489 15,300 -2,580 Descending FlightAware
05:50AM 41.2100 -88.2220 17° North 415 478 13,900 -2,580 Descending FlightAware
05:50AM 41.2760 -88.1960 16° North 403 464 12,400 -2,520 Descending FlightAware
05:51AM 41.3120 -88.1940 North 396 456 11,600 -1,500 Descending FlightAware
05:51AM 41.3920 -88.1940 360° North 389 448 10,800 -480 Descending FlightAware
05:52AM 41.4790 -88.1930 360° North 390 449 10,900 60 Climbing FlightAware
05:53AM 41.5380 -88.1930 360° North 390 449 10,900  Level FlightAware
05:53AM 41.6030 -88.1930 360° North 390 449 10,900  Level FlightAware
05:54AM 41.6680 -88.1940 359° North 390 449 10,900 -300 Level FlightAware
05:55AM 41.7350 -88.1940 360° North 368 423 10,600 -900 Descending FlightAware
05:55AM 41.7890 -88.1950 359° North 342 394 9,900 -840 Descending FlightAware
05:55AM 41.8180 -88.1950 360° North 315 362 9,900 -600 Level FlightAware
05:56AM 41.8640 -88.1950 360° North 282 325 9,400 -1,080 Descending FlightAware
05:56AM 41.8900 -88.1950 360° North 276 318 8,900 -1,860 Descending FlightAware
05:57AM 41.9180 -88.1940 North 274 315 8,100 -2,460 Descending FlightAware
05:57AM 41.9480 -88.1940 360° North 275 316 7,100 -2,640 Descending FlightAware
05:58AM 41.9800 -88.1940 360° North 282 325 6,000 -2,400 Descending FlightAware
05:58AM 42.0060 -88.1930 North 274 315 5,300 -1,560 Descending FlightAware
05:58AM 42.0360 -88.1930 360° North 253 291 4,900 -660 Descending FlightAware
05:59AM 42.0530 -88.1920 North 228 262 4,900  Level FlightAware
05:59AM 42.0720 -88.1910 North 204 235 4,900  Level FlightAware
05:59AM 42.0900 -88.1900 North 201 231 4,900  Level FlightAware
05:59AM 42.0980 -88.1870 16° North 207 238 4,900  Level FlightAware
05:59AM 42.1030 -88.1830 31° Northeast 207 238 4,900 -600 Level FlightAware
06:00AM 42.1210 -88.1630 39° Northeast 208 239 4,600 -1,080 Descending FlightAware
06:00AM 42.1330 -88.1400 55° Northeast 208 239 4,100 -1,440 Descending FlightAware
06:00AM 42.1330 -88.1350 90° East 206 237 4,000 -1,020 Descending FlightAware
06:00AM 42.1330 -88.1280 90° East 204 235 3,900 -420 Descending FlightAware
06:01AM 42.1300 -88.1180 112° Southeast 201 231 3,900 -240 Level FlightAware
06:01AM 42.1230 -88.0940 111° Southeast 203 234 3,800 -600 Descending FlightAware
06:01AM 42.1170 -88.0790 118° Southeast 199 229 3,600 -900 Descending FlightAware
06:01AM 42.1120 -88.0720 134° Southeast 191 220 3,500 -600 Descending FlightAware
06:02AM 42.0980 -88.0550 138° Southeast 176 203 3,300 -840 Descending FlightAware
06:02AM 42.0890 -88.0440 138° Southeast 171 197 3,000 -1,020 Descending FlightAware
06:02AM 42.0760 -88.0300 141° Southeast 180 207 2,700 -960 Descending FlightAware
06:02AM 42.0680 -88.0210 140° Southeast 182 209 2,500 -1,020 Descending FlightAware
06:03AM 42.0530 -88.0040 140° Southeast 176 203 2,100 -840 Descending FlightAware
06:03AM 42.0420 -87.9910 139° Southeast 160 184 1,900 -780 Descending FlightAware
06:03AM 42.0350 -87.9830 140° Southeast 146 168 1,700 -960 Descending FlightAware
06:04AM 42.0250 -87.9720 141° Southeast 134 154 1,400 -720 Descending FlightAware
06:04AM 42.0140 -87.9600 141° Southeast 134 154 1,200 -720 Descending FlightAware
06:04AM 42.0030 -87.9470 139° Southeast 135 155 900 -780 Descending FlightAware
06:05AM 41.9940 -87.9370 140° Southeast 138 159 700 -720 Descending FlightAware
06:05AM 41.9850 -87.9270 140° Southeast 137 158 500 -720 Descending FlightAware
06:05AM 41.9770 -87.9190 143° Southeast 88 101 -1,500 Descending FlightAware
06:13AM 41.9630 -87.9250 90° East  Level FlightAware